createdAt,value
2023-02-05T00:01:41.780Z,6.03
2023-02-05T00:04:09.265Z,6.73
2023-02-05T00:06:36.787Z,11.77
2023-02-05T00:09:04.257Z,9.37
2023-02-05T00:11:33.071Z,7.13
2023-02-05T00:14:00.566Z,10.63
2023-02-05T00:16:28.168Z,10.70
2023-02-05T00:18:55.783Z,11.67
2023-02-05T00:21:24.574Z,9.07
2023-02-05T00:23:52.063Z,9.00
2023-02-05T00:26:19.591Z,7.77
2023-02-05T00:28:48.447Z,6.83
2023-02-05T00:31:19.684Z,4.40
2023-02-05T00:33:48.347Z,5.67
2023-02-05T00:36:17.041Z,4.00
2023-02-05T00:38:46.039Z,4.83
2023-02-05T00:41:14.779Z,3.93
2023-02-05T00:43:43.037Z,3.87
2023-02-05T00:46:13.448Z,4.23
2023-02-05T00:48:42.707Z,3.63
2023-02-05T00:51:10.623Z,5.67
2023-02-05T00:53:38.889Z,3.80
2023-02-05T00:56:06.899Z,4.17
2023-02-05T00:58:34.585Z,4.97
2023-02-05T01:01:02.083Z,4.40
2023-02-05T01:03:31.047Z,5.57
2023-02-05T01:05:59.427Z,6.50
2023-02-05T01:08:26.876Z,4.53
2023-02-05T01:10:54.345Z,5.87
2023-02-05T01:13:21.824Z,3.67
2023-02-05T01:15:49.304Z,3.80
2023-02-05T01:18:17.038Z,4.53
2023-02-05T01:20:45.906Z,3.80
2023-02-05T01:23:13.389Z,3.07
2023-02-05T01:25:40.979Z,3.43
2023-02-05T01:28:08.525Z,3.43
2023-02-05T01:30:36.443Z,3.40
2023-02-05T01:33:04.421Z,4.37
2023-02-05T01:35:32.532Z,3.30
2023-02-05T01:38:01.661Z,4.00
2023-02-05T01:40:29.125Z,4.63
2023-02-05T01:42:56.608Z,5.70
2023-02-05T01:45:56.210Z,3.33
2023-02-05T01:48:28.023Z,4.47
2023-02-05T01:51:00.390Z,3.33
2023-02-05T01:53:32.595Z,3.53
2023-02-05T01:56:02.453Z,4.07
2023-02-05T01:58:34.732Z,3.73
2023-02-05T02:01:02.201Z,3.27
2023-02-05T02:03:32.132Z,4.03
2023-02-05T02:06:00.259Z,3.33
2023-02-05T02:08:29.601Z,3.27
2023-02-05T02:10:59.128Z,3.77
2023-02-05T02:13:28.917Z,3.50
2023-02-05T02:15:57.842Z,3.37
2023-02-05T02:18:28.975Z,3.47
2023-02-05T02:21:28.348Z,3.60
2023-02-05T02:24:50.034Z,3.53
2023-02-05T02:27:41.581Z,6.63
2023-02-05T02:30:15.637Z,4.60
2023-02-05T02:32:51.661Z,3.77
2023-02-05T02:35:26.596Z,4.80
2023-02-05T02:38:00.924Z,4.33
2023-02-05T02:40:36.747Z,3.80
2023-02-05T02:43:10.193Z,3.40
2023-02-05T02:45:49.968Z,6.60
2023-02-05T02:48:22.747Z,4.20
2023-02-05T02:50:53.786Z,4.57
2023-02-05T02:53:25.054Z,4.17
2023-02-05T02:55:54.796Z,6.83
2023-02-05T02:58:26.439Z,6.00
2023-02-05T03:00:55.078Z,7.73
2023-02-05T03:03:27.395Z,6.60
2023-02-05T03:05:58.254Z,7.17
2023-02-05T03:08:31.257Z,8.57
2023-02-05T03:11:04.238Z,8.40
2023-02-05T03:13:33.234Z,6.30
2023-02-05T03:16:01.432Z,5.73
2023-02-05T03:18:30.443Z,5.87
2023-02-05T03:21:01.254Z,6.10
2023-02-05T03:23:29.646Z,7.33
2023-02-05T03:25:57.238Z,6.60
2023-02-05T03:28:24.962Z,5.30
2023-02-05T03:31:05.166Z,5.83
2023-02-05T03:33:47.994Z,6.20
2023-02-05T03:36:21.645Z,4.23
2023-02-05T03:39:03.545Z,3.93
2023-02-05T03:41:54.951Z,4.93
2023-02-05T03:44:49.532Z,4.50
2023-02-05T03:47:33.635Z,4.47
2023-02-05T03:50:11.914Z,4.60
2023-02-05T03:52:44.928Z,5.20
2023-02-05T03:55:18.283Z,4.57
2023-02-05T03:57:53.644Z,7.93
2023-02-05T04:00:21.557Z,4.60
2023-02-05T04:02:50.356Z,5.77
2023-02-05T04:05:20.943Z,6.27
2023-02-05T04:07:48.473Z,4.87
2023-02-05T04:10:16.524Z,4.50
2023-02-05T04:12:43.979Z,5.70
2023-02-05T04:15:11.796Z,4.20
2023-02-05T04:17:39.310Z,3.67
2023-02-05T04:20:09.520Z,4.67
2023-02-05T04:22:37.013Z,3.90
2023-02-05T04:25:04.794Z,5.77
2023-02-05T04:27:32.281Z,4.30
2023-02-05T04:29:59.763Z,4.10
2023-02-05T04:32:27.317Z,3.90
2023-02-05T04:34:54.772Z,3.87
2023-02-05T04:37:24.946Z,4.60
2023-02-05T04:39:52.489Z,4.80
2023-02-05T04:42:20.113Z,5.83
2023-02-05T04:44:47.588Z,4.07
2023-02-05T04:47:15.076Z,7.73
2023-02-05T04:49:42.552Z,3.93
2023-02-05T04:52:10.028Z,4.00
2023-02-05T04:54:39.307Z,3.90
2023-02-05T04:57:06.763Z,4.97
2023-02-05T04:59:34.256Z,3.77
2023-02-05T05:02:01.775Z,3.90
2023-02-05T05:04:29.250Z,4.47
2023-02-05T05:06:56.711Z,4.50
2023-02-05T05:09:25.276Z,3.90
2023-02-05T05:11:54.770Z,4.20
2023-02-05T05:14:22.202Z,4.70
2023-02-05T05:16:50.239Z,4.20
2023-02-05T05:19:17.800Z,5.70
2023-02-05T05:21:45.306Z,4.50
2023-02-05T05:24:12.811Z,6.50
2023-02-05T05:26:43.742Z,4.50
2023-02-05T05:29:13.654Z,6.10
2023-02-05T05:31:41.509Z,9.13
2023-02-05T05:34:09.017Z,5.37
2023-02-05T05:36:36.505Z,4.47
2023-02-05T05:39:18.090Z,4.20
2023-02-05T05:42:03.371Z,5.70
2023-02-05T05:44:32.182Z,5.40
2023-02-05T05:46:59.682Z,4.80
2023-02-05T05:49:27.223Z,5.67
2023-02-05T05:51:54.829Z,5.77
2023-02-05T05:54:22.306Z,4.80
2023-02-05T05:56:50.212Z,8.53
2023-02-05T05:59:17.828Z,4.77
2023-02-05T06:01:46.686Z,5.53
2023-02-05T06:04:14.165Z,4.90
2023-02-05T06:06:42.438Z,4.70
2023-02-05T06:09:09.987Z,4.67
2023-02-05T06:11:37.469Z,4.57
2023-02-05T06:14:05.306Z,4.60
2023-02-05T06:16:32.812Z,4.60
2023-02-05T06:19:01.698Z,3.87
2023-02-05T06:21:29.157Z,3.53
2023-02-05T06:23:56.626Z,3.50
2023-02-05T06:26:24.145Z,4.37
2023-02-05T06:28:51.642Z,3.87
2023-02-05T06:31:19.209Z,3.87
2023-02-05T06:33:46.726Z,4.67
2023-02-05T06:36:15.518Z,3.90
2023-02-05T06:38:42.977Z,4.40
2023-02-05T06:41:10.434Z,4.47
2023-02-05T06:43:37.912Z,4.57
2023-02-05T06:46:05.702Z,4.13
2023-02-05T06:48:33.190Z,4.00
2023-02-05T06:51:00.644Z,6.17
2023-02-05T06:53:29.479Z,5.33
2023-02-05T06:55:59.228Z,5.10
2023-02-05T06:58:26.762Z,21.87
2023-02-05T07:00:54.219Z,14.53
2023-02-05T07:03:21.714Z,13.27
2023-02-05T07:05:49.193Z,12.70
2023-02-05T07:08:17.032Z,10.07
2023-02-05T07:10:45.830Z,19.17
2023-02-05T07:13:13.364Z,25.77
2023-02-05T07:15:40.831Z,18.70
2023-02-05T07:18:08.288Z,14.30
2023-02-05T07:20:35.846Z,12.87
2023-02-05T07:23:03.301Z,15.50
2023-02-05T07:25:36.268Z,15.13
2023-02-05T07:28:05.930Z,9.87
2023-02-05T07:30:33.698Z,8.00
2023-02-05T07:33:03.398Z,8.97
2023-02-05T07:35:31.090Z,8.50
2023-02-05T07:37:58.595Z,8.30
2023-02-05T07:40:26.125Z,21.27
2023-02-05T07:42:53.582Z,12.30
2023-02-05T07:45:22.371Z,17.13
2023-02-05T07:47:50.772Z,18.43
2023-02-05T07:50:18.712Z,22.30
2023-02-05T07:52:46.184Z,21.67
2023-02-05T07:55:13.616Z,16.23
2023-02-05T07:57:41.602Z,23.03
2023-02-05T08:00:10.637Z,22.20
2023-02-05T08:02:39.646Z,22.27
2023-02-05T08:05:08.186Z,17.57
2023-02-05T08:07:37.285Z,18.93
2023-02-05T08:10:05.696Z,20.43
2023-02-05T08:12:33.208Z,20.33
2023-02-05T08:15:00.669Z,20.07
2023-02-05T08:17:28.167Z,16.33
2023-02-05T08:19:56.947Z,15.07
2023-02-05T08:22:24.454Z,14.83
2023-02-05T08:24:51.976Z,11.47
2023-02-05T08:27:19.473Z,12.97
2023-02-05T08:29:48.208Z,9.67
2023-02-05T08:32:15.742Z,9.80
2023-02-05T08:34:43.217Z,10.33
2023-02-05T08:37:12.285Z,16.93
2023-02-05T08:39:39.762Z,12.57
2023-02-05T08:42:07.276Z,12.87
2023-02-05T08:44:34.738Z,6.00
2023-02-05T08:47:02.190Z,6.90
2023-02-05T08:49:29.671Z,6.53
2023-02-05T08:51:58.110Z,8.03
2023-02-05T08:54:27.038Z,8.83
2023-02-05T08:56:54.513Z,11.97
2023-02-05T08:59:22.391Z,78.17
2023-02-05T09:01:50.120Z,82.77
2023-02-05T09:04:19.784Z,68.17
2023-02-05T09:06:48.020Z,53.47
2023-02-05T09:09:15.900Z,65.53
2023-02-05T09:11:46.636Z,73.23
2023-02-05T09:14:14.790Z,74.03
2023-02-05T09:16:42.964Z,62.43
2023-02-05T09:19:10.669Z,62.00
2023-02-05T09:21:38.104Z,60.93
2023-02-05T09:24:05.971Z,52.60
2023-02-05T09:26:33.679Z,48.90
2023-02-05T09:29:03.694Z,59.73
2023-02-05T09:31:31.377Z,50.13
2023-02-05T09:33:58.963Z,35.83
2023-02-05T09:36:26.655Z,36.73
2023-02-05T09:39:11.921Z,48.13
2023-02-05T09:41:48.948Z,27.77
2023-02-05T09:44:26.544Z,12.37
2023-02-05T09:47:02.527Z,9.57
2023-02-05T09:49:35.714Z,12.03
2023-02-05T09:52:05.986Z,7.03
2023-02-05T09:54:37.529Z,9.80
2023-02-05T09:57:09.014Z,5.93
2023-02-05T09:59:38.505Z,5.47
2023-02-05T10:02:25.924Z,9.00
2023-02-05T10:04:54.781Z,7.83
2023-02-05T10:07:38.243Z,14.90
2023-02-05T10:10:22.407Z,13.57
2023-02-05T10:13:16.886Z,21.37
2023-02-05T10:16:02.784Z,23.83
2023-02-05T10:18:44.417Z,51.43
2023-02-05T10:21:28.601Z,14.07
2023-02-05T10:24:15.481Z,6.93
2023-02-05T10:26:49.390Z,3.00
2023-02-05T10:29:28.366Z,5.60
2023-02-05T10:32:08.754Z,5.30
2023-02-05T10:34:49.906Z,6.23
2023-02-05T10:37:19.801Z,6.30
2023-02-05T10:39:49.048Z,5.60
2023-02-05T10:42:27.332Z,6.00
2023-02-05T10:45:04.454Z,6.30
2023-02-05T10:47:49.391Z,5.30
2023-02-05T10:50:23.995Z,5.70
2023-02-05T10:52:51.938Z,6.37
2023-02-05T10:55:19.714Z,5.80
2023-02-05T10:57:47.273Z,5.73
2023-02-05T11:00:17.804Z,5.13
2023-02-05T11:02:50.415Z,5.87
2023-02-05T11:05:24.045Z,5.73
2023-02-05T11:07:55.240Z,5.87
2023-02-05T11:10:24.772Z,6.10
2023-02-05T11:12:55.819Z,6.20
2023-02-05T11:15:26.105Z,5.30
2023-02-05T11:18:00.042Z,4.97
2023-02-05T11:20:30.691Z,5.13
2023-02-05T11:23:10.529Z,6.00
2023-02-05T11:25:38.047Z,5.00
2023-02-05T11:28:06.065Z,4.87
2023-02-05T11:30:50.748Z,4.87
2023-02-05T11:33:32.295Z,6.23
2023-02-05T11:36:03.076Z,4.53
2023-02-05T11:38:39.965Z,4.00
2023-02-05T11:41:09.162Z,3.90
2023-02-05T11:43:39.250Z,7.00
2023-02-05T11:46:10.080Z,5.13
2023-02-05T11:48:44.246Z,3.73
2023-02-05T11:51:15.200Z,4.40
2023-02-05T11:53:51.545Z,3.40
2023-02-05T11:56:24.955Z,3.43
2023-02-05T11:59:00.903Z,3.60
2023-02-05T12:01:32.355Z,3.53
2023-02-05T12:04:02.927Z,3.50
2023-02-05T12:06:36.977Z,4.10
2023-02-05T12:09:05.000Z,3.97
2023-02-05T12:12:03.948Z,3.83
2023-02-05T12:14:41.213Z,3.40
2023-02-05T12:17:26.043Z,4.83
2023-02-05T12:20:05.243Z,4.43
2023-02-05T12:22:56.487Z,3.97
2023-02-05T12:25:29.808Z,3.77
2023-02-05T12:28:18.541Z,3.87
2023-02-05T12:30:57.972Z,3.57
2023-02-05T12:33:43.951Z,4.57
2023-02-05T12:36:30.105Z,3.23
2023-02-05T12:39:13.482Z,3.33
2023-02-05T12:41:50.053Z,3.27
2023-02-05T12:44:34.609Z,4.87
2023-02-05T12:47:14.724Z,5.23
2023-02-05T12:50:07.821Z,3.20
2023-02-05T12:52:54.443Z,5.00
2023-02-05T12:55:33.128Z,3.93
2023-02-05T12:58:04.070Z,4.40
2023-02-05T13:00:37.286Z,3.37
2023-02-05T13:03:09.764Z,3.00
2023-02-05T13:05:41.852Z,2.93
2023-02-05T13:08:20.080Z,3.90
2023-02-05T13:10:54.468Z,3.53
2023-02-05T13:13:31.298Z,3.60
2023-02-05T13:16:03.937Z,4.20
2023-02-05T13:18:36.511Z,2.83
2023-02-05T13:21:25.734Z,4.07
2023-02-05T13:24:36.146Z,4.63
2023-02-05T13:27:23.757Z,3.30
2023-02-05T13:29:53.846Z,4.10
2023-02-05T13:32:25.169Z,4.30
2023-02-05T13:34:54.688Z,5.33
2023-02-05T13:37:42.638Z,3.87
2023-02-05T13:40:43.701Z,4.70
2023-02-05T13:43:39.369Z,4.40
2023-02-05T13:46:37.306Z,4.13
2023-02-05T13:49:52.092Z,4.37
2023-02-05T13:52:58.180Z,6.33
2023-02-05T13:56:04.701Z,5.20
2023-02-05T13:58:35.003Z,5.57
2023-02-05T14:01:06.502Z,5.30
2023-02-05T14:03:38.138Z,6.10
2023-02-05T14:06:23.843Z,4.70
2023-02-05T14:08:57.658Z,5.40
2023-02-05T14:11:26.787Z,5.03
2023-02-05T14:14:25.960Z,5.67
2023-02-05T14:16:54.900Z,5.20
2023-02-05T14:19:25.628Z,5.23
2023-02-05T14:22:13.602Z,6.40
2023-02-05T14:24:47.372Z,5.77
2023-02-05T14:27:48.797Z,5.23
2023-02-05T14:30:38.583Z,6.27
2023-02-05T14:33:27.982Z,5.37
2023-02-05T14:35:57.406Z,5.53
2023-02-05T14:38:28.883Z,5.73
2023-02-05T14:41:06.242Z,8.50
2023-02-05T14:43:37.275Z,5.47
2023-02-05T14:46:08.230Z,5.23
2023-02-05T14:48:42.733Z,5.47
2023-02-05T14:51:29.136Z,4.60
2023-02-05T14:53:59.601Z,7.70
2023-02-05T14:56:33.959Z,4.67
2023-02-05T14:59:07.224Z,5.00
2023-02-05T15:01:46.591Z,5.93
2023-02-05T15:04:39.088Z,5.03
2023-02-05T15:07:13.767Z,4.90
2023-02-05T15:09:45.444Z,4.17
2023-02-05T15:12:32.216Z,4.83
2023-02-05T15:15:16.991Z,5.20
2023-02-05T15:17:52.704Z,4.63
2023-02-05T15:20:33.743Z,5.43
2023-02-05T15:23:21.965Z,4.60
2023-02-05T15:25:56.826Z,4.43
2023-02-05T15:28:33.075Z,4.57
2023-02-05T15:31:17.961Z,4.70
2023-02-05T15:33:53.325Z,4.90
2023-02-05T15:36:27.815Z,5.23
2023-02-05T15:39:06.753Z,5.80
2023-02-05T15:41:45.170Z,4.70
2023-02-05T15:44:22.826Z,5.47
2023-02-05T15:46:52.496Z,4.67
2023-02-05T15:49:26.410Z,4.50
2023-02-05T15:51:53.919Z,5.27
2023-02-05T15:54:21.936Z,8.43
2023-02-05T15:56:52.326Z,5.40
2023-02-05T15:59:24.169Z,4.50
2023-02-05T16:02:01.760Z,4.80
2023-02-05T16:04:31.663Z,5.20
2023-02-05T16:06:59.994Z,7.17
2023-02-05T16:09:29.109Z,4.77
2023-02-05T16:11:57.039Z,4.83
2023-02-05T16:14:26.334Z,5.20
2023-02-05T16:17:04.109Z,6.97
2023-02-05T16:19:36.929Z,5.60
2023-02-05T16:22:18.532Z,5.57
2023-02-05T16:24:49.571Z,7.93
2023-02-05T16:27:21.192Z,9.47
2023-02-05T16:29:53.179Z,10.43
2023-02-05T16:32:29.104Z,8.80
2023-02-05T16:34:56.894Z,7.80
2023-02-05T16:37:31.222Z,6.33
2023-02-05T16:40:01.447Z,6.23
2023-02-05T16:42:34.086Z,6.50
2023-02-05T16:45:18.520Z,6.27
2023-02-05T16:48:23.207Z,5.93
2023-02-05T16:50:52.081Z,5.53
2023-02-05T16:53:24.041Z,6.00
2023-02-05T16:55:58.142Z,5.63
2023-02-05T16:58:28.940Z,8.60
2023-02-05T17:00:59.016Z,8.03
2023-02-05T17:03:34.302Z,6.07
2023-02-05T17:06:04.051Z,6.97
2023-02-05T17:08:34.272Z,5.73
2023-02-05T17:11:04.477Z,8.00
2023-02-05T17:13:40.555Z,9.80
2023-02-05T17:16:35.289Z,16.33
2023-02-05T17:19:06.324Z,28.87
2023-02-05T17:21:34.949Z,30.90
2023-02-05T17:24:05.914Z,37.27
2023-02-05T17:26:36.126Z,47.43
2023-02-05T17:29:07.536Z,32.47
2023-02-05T17:31:38.255Z,23.47
2023-02-05T17:34:07.566Z,17.60
2023-02-05T17:36:35.081Z,11.43
2023-02-05T17:39:02.580Z,9.03
2023-02-05T17:41:53.900Z,8.87
2023-02-05T17:44:21.360Z,8.33
2023-02-05T17:46:48.821Z,7.33
2023-02-05T17:49:17.601Z,9.47
2023-02-05T17:51:45.031Z,9.27
2023-02-05T17:54:14.477Z,13.67
2023-02-05T17:56:44.274Z,13.73
2023-02-05T17:59:12.784Z,13.20
2023-02-05T18:01:40.238Z,20.13
2023-02-05T18:04:08.860Z,23.20
2023-02-05T18:06:38.413Z,19.73
2023-02-05T18:09:06.628Z,27.27
2023-02-05T18:11:34.433Z,13.80
2023-02-05T18:14:02.113Z,16.93
2023-02-05T18:16:29.689Z,12.87
2023-02-05T18:18:57.216Z,16.03
2023-02-05T18:21:24.980Z,33.30
2023-02-05T18:23:53.818Z,39.67
2023-02-05T18:26:21.822Z,34.80
2023-02-05T18:28:49.882Z,31.80
2023-02-05T18:31:17.565Z,36.93
2023-02-05T18:33:45.140Z,35.30
2023-02-05T18:36:14.663Z,20.23
2023-02-05T18:38:43.879Z,10.73
2023-02-05T18:41:14.601Z,11.57
2023-02-05T18:43:42.785Z,12.50
2023-02-05T18:46:12.552Z,17.03
2023-02-05T18:48:40.963Z,23.07
2023-02-05T18:51:10.380Z,20.87
2023-02-05T18:53:39.334Z,15.67
2023-02-05T18:56:09.469Z,19.43
2023-02-05T18:58:38.307Z,14.23
2023-02-05T19:01:10.157Z,13.73
2023-02-05T19:03:38.811Z,13.07
2023-02-05T19:06:06.757Z,19.70
2023-02-05T19:08:34.270Z,17.97
2023-02-05T19:11:06.800Z,28.10
2023-02-05T19:13:36.294Z,34.33
2023-02-05T19:16:07.387Z,26.77
2023-02-05T19:18:34.961Z,23.30
2023-02-05T19:21:06.585Z,17.20
2023-02-05T19:23:34.521Z,17.30
2023-02-05T19:26:04.081Z,22.13
2023-02-05T19:28:32.687Z,17.03
2023-02-05T19:31:03.495Z,18.60
2023-02-05T19:33:32.874Z,14.53
2023-02-05T19:36:01.004Z,17.97
2023-02-05T19:38:29.003Z,14.20
2023-02-05T19:40:56.483Z,15.33
2023-02-05T19:43:24.035Z,19.00
2023-02-05T19:45:51.524Z,22.37
2023-02-05T19:48:19.025Z,22.17
2023-02-05T19:50:47.837Z,26.73
2023-02-05T19:53:16.697Z,20.57
2023-02-05T19:55:44.176Z,22.97
2023-02-05T19:58:12.615Z,23.87
2023-02-05T20:00:40.132Z,38.50
2023-02-05T20:03:07.608Z,34.33
2023-02-05T20:05:37.184Z,24.57
2023-02-05T20:08:06.101Z,23.97
2023-02-05T20:10:33.853Z,21.53
2023-02-05T20:13:01.478Z,24.37
2023-02-05T20:15:28.942Z,21.63
2023-02-05T20:17:58.446Z,23.83
2023-02-05T20:20:33.509Z,18.70
2023-02-05T20:23:01.400Z,20.30
2023-02-05T20:25:30.239Z,19.20
2023-02-05T20:27:57.802Z,17.80
2023-02-05T20:30:43.138Z,21.17
2023-02-05T20:33:10.730Z,17.83
2023-02-05T20:35:39.082Z,19.37
2023-02-05T20:38:06.949Z,16.97
2023-02-05T20:40:35.988Z,18.83
2023-02-05T20:43:04.658Z,20.03
2023-02-05T20:45:33.740Z,22.00
2023-02-05T20:48:01.351Z,23.93
2023-02-05T20:50:28.827Z,22.77
2023-02-05T20:52:56.380Z,23.20
2023-02-05T20:55:23.856Z,18.47
2023-02-05T20:57:52.665Z,20.83
2023-02-05T21:00:22.304Z,21.23
2023-02-05T21:02:49.770Z,18.93
2023-02-05T21:05:17.270Z,19.83
2023-02-05T21:07:44.809Z,19.10
2023-02-05T21:10:12.281Z,18.90
2023-02-05T21:12:39.746Z,15.87
2023-02-05T21:15:09.425Z,20.67
2023-02-05T21:17:37.319Z,15.80
2023-02-05T21:20:05.160Z,14.90
2023-02-05T21:22:32.613Z,15.53
2023-02-05T21:25:00.101Z,15.30
2023-02-05T21:27:27.649Z,12.03
2023-02-05T21:29:55.101Z,11.50
2023-02-05T21:32:23.939Z,12.50
2023-02-05T21:34:52.131Z,16.70
2023-02-05T21:37:19.629Z,15.30
2023-02-05T21:39:48.046Z,14.10
2023-02-05T21:42:15.533Z,15.17
2023-02-05T21:44:44.127Z,16.90
2023-02-05T21:47:11.602Z,16.20
2023-02-05T21:49:40.386Z,15.77
2023-02-05T21:52:07.855Z,17.00
2023-02-05T21:54:35.302Z,17.47
2023-02-05T21:57:02.760Z,14.70
2023-02-05T21:59:30.209Z,13.17
2023-02-05T22:01:57.748Z,16.93
2023-02-05T22:04:25.269Z,14.90
2023-02-05T22:06:54.050Z,11.03
2023-02-05T22:09:21.690Z,16.03
2023-02-05T22:11:50.527Z,21.40
2023-02-05T22:14:18.141Z,16.30
2023-02-05T22:16:45.732Z,18.57
2023-02-05T22:19:13.233Z,18.07
2023-02-05T22:21:42.326Z,18.23
2023-02-05T22:24:15.022Z,17.17
2023-02-05T22:26:42.934Z,19.00
2023-02-05T22:29:13.386Z,19.63
2023-02-05T22:31:41.081Z,16.77
2023-02-05T22:34:08.612Z,17.90
2023-02-05T22:36:36.357Z,18.80
2023-02-05T22:39:05.485Z,14.60
2023-02-05T22:41:36.347Z,11.17
2023-02-05T22:44:05.407Z,12.23
2023-02-05T22:46:34.728Z,12.47
2023-02-05T22:49:03.377Z,12.03
2023-02-05T22:51:32.876Z,12.00
2023-02-05T22:54:00.625Z,10.07
2023-02-05T22:56:28.651Z,10.87
2023-02-05T22:58:57.902Z,10.17
2023-02-05T23:01:27.893Z,10.87
2023-02-05T23:03:56.288Z,12.07
2023-02-05T23:06:26.116Z,12.50
2023-02-05T23:08:58.915Z,13.17
2023-02-05T23:11:27.823Z,11.97
2023-02-05T23:13:57.426Z,15.13
2023-02-05T23:16:26.889Z,13.87
2023-02-05T23:18:58.046Z,14.17
2023-02-05T23:21:27.797Z,16.77
2023-02-05T23:23:55.374Z,17.63
2023-02-05T23:26:24.603Z,17.33
2023-02-05T23:28:53.004Z,15.17
2023-02-05T23:31:22.687Z,15.33
2023-02-05T23:33:50.857Z,13.73
2023-02-05T23:36:18.877Z,9.43
2023-02-05T23:38:46.420Z,10.10
2023-02-05T23:41:14.045Z,9.93
2023-02-05T23:43:41.746Z,12.77
2023-02-05T23:46:09.586Z,11.93
2023-02-05T23:48:38.578Z,11.37
2023-02-05T23:51:06.064Z,10.50
2023-02-05T23:53:33.529Z,14.50
2023-02-05T23:56:01.761Z,12.13
2023-02-05T23:58:29.233Z,10.60
